sensor_id;sensor_type;location;lat;lon;timestamp;temperature;humidity
16532;DHT22;66872;63.142;14.482;2024-02-23T00:00:01;16.10;31.90
16532;DHT22;66872;63.142;14.482;2024-02-23T00:02:31;16.10;32.00
16532;DHT22;66872;63.142;14.482;2024-02-23T00:04:57;16.10;31.90
16532;DHT22;66872;63.142;14.482;2024-02-23T00:07:23;16.10;31.90
16532;DHT22;66872;63.142;14.482;2024-02-23T00:09:48;16.10;31.90
16532;DHT22;66872;63.142;14.482;2024-02-23T00:12:14;16.10;32.00
16532;DHT22;66872;63.142;14.482;2024-02-23T00:14:40;16.10;31.90
16532;DHT22;66872;63.142;14.482;2024-02-23T00:17:06;16.10;32.00
16532;DHT22;66872;63.142;14.482;2024-02-23T00:19:32;16.10;32.00
16532;DHT22;66872;63.142;14.482;2024-02-23T00:21:58;16.10;32.00
16532;DHT22;66872;63.142;14.482;2024-02-23T00:24:27;16.00;31.90
16532;DHT22;66872;63.142;14.482;2024-02-23T00:26:54;16.10;32.00
16532;DHT22;66872;63.142;14.482;2024-02-23T00:29:20;16.10;32.00
16532;DHT22;66872;63.142;14.482;2024-02-23T00:31:47;16.10;32.00
16532;DHT22;66872;63.142;14.482;2024-02-23T00:34:13;16.10;32.00
16532;DHT22;66872;63.142;14.482;2024-02-23T00:36:40;16.10;32.00
16532;DHT22;66872;63.142;14.482;2024-02-23T00:39:06;16.10;32.00
16532;DHT22;66872;63.142;14.482;2024-02-23T00:41:35;16.10;32.00
16532;DHT22;66872;63.142;14.482;2024-02-23T00:44:02;16.10;32.00
16532;DHT22;66872;63.142;14.482;2024-02-23T00:46:28;16.10;32.00
16532;DHT22;66872;63.142;14.482;2024-02-23T00:48:53;16.10;32.10
16532;DHT22;66872;63.142;14.482;2024-02-23T00:51:19;16.00;32.00
16532;DHT22;66872;63.142;14.482;2024-02-23T00:53:45;16.10;32.10
16532;DHT22;66872;63.142;14.482;2024-02-23T00:56:11;16.00;32.00
16532;DHT22;66872;63.142;14.482;2024-02-23T00:58:38;16.10;32.10
16532;DHT22;66872;63.142;14.482;2024-02-23T01:01:04;16.00;31.90
16532;DHT22;66872;63.142;14.482;2024-02-23T01:03:30;16.00;31.90
16532;DHT22;66872;63.142;14.482;2024-02-23T01:05:55;16.10;32.00
16532;DHT22;66872;63.142;14.482;2024-02-23T01:08:21;16.10;32.00
16532;DHT22;66872;63.142;14.482;2024-02-23T01:10:47;16.10;32.00
16532;DHT22;66872;63.142;14.482;2024-02-23T01:13:12;16.10;32.00
16532;DHT22;66872;63.142;14.482;2024-02-23T01:15:39;16.10;32.00
16532;DHT22;66872;63.142;14.482;2024-02-23T01:18:05;16.10;32.00
16532;DHT22;66872;63.142;14.482;2024-02-23T01:20:33;16.10;32.00
16532;DHT22;66872;63.142;14.482;2024-02-23T01:22:58;16.10;32.00
16532;DHT22;66872;63.142;14.482;2024-02-23T01:25:24;16.10;32.60
16532;DHT22;66872;63.142;14.482;2024-02-23T01:27:50;16.10;32.00
16532;DHT22;66872;63.142;14.482;2024-02-23T01:30:15;16.00;31.90
16532;DHT22;66872;63.142;14.482;2024-02-23T01:32:41;16.10;32.00
16532;DHT22;66872;63.142;14.482;2024-02-23T01:35:07;16.00;31.90
16532;DHT22;66872;63.142;14.482;2024-02-23T01:37:34;16.10;32.00
16532;DHT22;66872;63.142;14.482;2024-02-23T01:40:00;16.00;31.90
16532;DHT22;66872;63.142;14.482;2024-02-23T01:42:26;16.10;32.00
16532;DHT22;66872;63.142;14.482;2024-02-23T01:44:52;16.10;32.00
16532;DHT22;66872;63.142;14.482;2024-02-23T01:47:18;16.00;31.90
16532;DHT22;66872;63.142;14.482;2024-02-23T01:49:46;16.10;32.00
16532;DHT22;66872;63.142;14.482;2024-02-23T01:52:13;16.00;31.90
16532;DHT22;66872;63.142;14.482;2024-02-23T01:54:40;16.10;32.00
16532;DHT22;66872;63.142;14.482;2024-02-23T01:57:07;16.10;32.00
16532;DHT22;66872;63.142;14.482;2024-02-23T01:59:38;16.00;32.00
16532;DHT22;66872;63.142;14.482;2024-02-23T02:02:04;16.10;32.10
16532;DHT22;66872;63.142;14.482;2024-02-23T02:04:30;16.10;32.10
16532;DHT22;66872;63.142;14.482;2024-02-23T02:06:57;16.00;32.00
16532;DHT22;66872;63.142;14.482;2024-02-23T02:09:23;16.10;32.10
16532;DHT22;66872;63.142;14.482;2024-02-23T02:11:49;16.10;32.00
16532;DHT22;66872;63.142;14.482;2024-02-23T02:14:16;16.10;32.00
16532;DHT22;66872;63.142;14.482;2024-02-23T02:16:42;16.10;32.10
16532;DHT22;66872;63.142;14.482;2024-02-23T02:19:09;16.10;32.10
16532;DHT22;66872;63.142;14.482;2024-02-23T02:21:36;16.10;32.10
16532;DHT22;66872;63.142;14.482;2024-02-23T02:24:02;16.10;32.10
16532;DHT22;66872;63.142;14.482;2024-02-23T02:26:29;16.10;32.10
16532;DHT22;66872;63.142;14.482;2024-02-23T02:28:54;16.10;32.10
16532;DHT22;66872;63.142;14.482;2024-02-23T02:31:20;16.10;32.10
16532;DHT22;66872;63.142;14.482;2024-02-23T02:33:46;16.10;32.10
16532;DHT22;66872;63.142;14.482;2024-02-23T02:36:11;16.10;32.10
16532;DHT22;66872;63.142;14.482;2024-02-23T02:38:37;16.10;32.10
16532;DHT22;66872;63.142;14.482;2024-02-23T02:41:04;16.10;32.10
16532;DHT22;66872;63.142;14.482;2024-02-23T02:43:30;16.10;32.10
16532;DHT22;66872;63.142;14.482;2024-02-23T02:45:56;16.10;32.10
16532;DHT22;66872;63.142;14.482;2024-02-23T02:48:22;16.10;32.10
16532;DHT22;66872;63.142;14.482;2024-02-23T02:50:48;16.10;32.10
16532;DHT22;66872;63.142;14.482;2024-02-23T02:53:15;16.10;32.10
16532;DHT22;66872;63.142;14.482;2024-02-23T02:55:44;16.10;32.10
16532;DHT22;66872;63.142;14.482;2024-02-23T02:58:11;16.00;32.00
16532;DHT22;66872;63.142;14.482;2024-02-23T03:00:38;16.10;32.10
16532;DHT22;66872;63.142;14.482;2024-02-23T03:03:04;16.10;32.10
16532;DHT22;66872;63.142;14.482;2024-02-23T03:05:29;16.10;32.10
16532;DHT22;66872;63.142;14.482;2024-02-23T03:07:55;16.10;32.10
16532;DHT22;66872;63.142;14.482;2024-02-23T03:10:21;16.10;32.10
16532;DHT22;66872;63.142;14.482;2024-02-23T03:12:46;16.10;32.10
16532;DHT22;66872;63.142;14.482;2024-02-23T03:15:12;16.10;32.10
16532;DHT22;66872;63.142;14.482;2024-02-23T03:17:38;16.10;32.10
16532;DHT22;66872;63.142;14.482;2024-02-23T03:20:04;16.10;32.00
16532;DHT22;66872;63.142;14.482;2024-02-23T03:22:37;16.10;32.10
16532;DHT22;66872;63.142;14.482;2024-02-23T03:25:04;16.10;32.10
16532;DHT22;66872;63.142;14.482;2024-02-23T03:27:34;16.10;32.10
16532;DHT22;66872;63.142;14.482;2024-02-23T03:30:04;16.10;32.10
16532;DHT22;66872;63.142;14.482;2024-02-23T03:32:31;16.10;32.10
16532;DHT22;66872;63.142;14.482;2024-02-23T03:35:02;16.10;32.10
16532;DHT22;66872;63.142;14.482;2024-02-23T03:37:28;16.10;32.10
16532;DHT22;66872;63.142;14.482;2024-02-23T03:39:54;16.10;32.10
16532;DHT22;66872;63.142;14.482;2024-02-23T03:42:20;16.10;32.10
16532;DHT22;66872;63.142;14.482;2024-02-23T03:44:45;16.10;32.10
16532;DHT22;66872;63.142;14.482;2024-02-23T03:47:11;16.00;32.00
16532;DHT22;66872;63.142;14.482;2024-02-23T03:49:37;16.10;32.10
16532;DHT22;66872;63.142;14.482;2024-02-23T03:52:04;16.10;32.10
16532;DHT22;66872;63.142;14.482;2024-02-23T03:54:30;16.10;32.10
16532;DHT22;66872;63.142;14.482;2024-02-23T03:56:57;16.10;32.10
16532;DHT22;66872;63.142;14.482;2024-02-23T03:59:22;16.10;32.10
16532;DHT22;66872;63.142;14.482;2024-02-23T04:01:49;16.10;32.70
16532;DHT22;66872;63.142;14.482;2024-02-23T04:04:15;16.10;32.10
16532;DHT22;66872;63.142;14.482;2024-02-23T04:06:40;16.10;32.10
16532;DHT22;66872;63.142;14.482;2024-02-23T04:09:06;16.10;32.10
16532;DHT22;66872;63.142;14.482;2024-02-23T04:11:34;16.00;32.00
16532;DHT22;66872;63.142;14.482;2024-02-23T04:13:59;16.10;32.10
16532;DHT22;66872;63.142;14.482;2024-02-23T04:16:26;16.10;32.10
16532;DHT22;66872;63.142;14.482;2024-02-23T04:18:52;16.00;32.00
16532;DHT22;66872;63.142;14.482;2024-02-23T04:21:18;16.10;32.20
16532;DHT22;66872;63.142;14.482;2024-02-23T04:23:44;16.10;32.10
16532;DHT22;66872;63.142;14.482;2024-02-23T04:26:09;16.10;32.10
16532;DHT22;66872;63.142;14.482;2024-02-23T04:28:38;16.10;32.10
16532;DHT22;66872;63.142;14.482;2024-02-23T04:31:04;16.10;32.00
16532;DHT22;66872;63.142;14.482;2024-02-23T04:33:30;16.10;32.10
16532;DHT22;66872;63.142;14.482;2024-02-23T04:35:55;16.10;32.10
16532;DHT22;66872;63.142;14.482;2024-02-23T04:38:21;16.10;32.10
16532;DHT22;66872;63.142;14.482;2024-02-23T04:40:47;16.10;32.10
16532;DHT22;66872;63.142;14.482;2024-02-23T04:43:13;16.10;32.10
16532;DHT22;66872;63.142;14.482;2024-02-23T04:45:39;16.10;32.10
16532;DHT22;66872;63.142;14.482;2024-02-23T04:48:05;16.10;32.10
16532;DHT22;66872;63.142;14.482;2024-02-23T04:50:31;16.10;32.10
16532;DHT22;66872;63.142;14.482;2024-02-23T04:52:56;16.10;32.10
16532;DHT22;66872;63.142;14.482;2024-02-23T04:55:22;16.10;32.10
16532;DHT22;66872;63.142;14.482;2024-02-23T04:57:48;16.00;32.00
16532;DHT22;66872;63.142;14.482;2024-02-23T05:00:14;16.00;32.00
16532;DHT22;66872;63.142;14.482;2024-02-23T05:02:40;16.00;32.00
16532;DHT22;66872;63.142;14.482;2024-02-23T05:05:06;16.10;32.10
16532;DHT22;66872;63.142;14.482;2024-02-23T05:07:32;16.00;32.00
16532;DHT22;66872;63.142;14.482;2024-02-23T05:09:57;16.00;32.00
16532;DHT22;66872;63.142;14.482;2024-02-23T05:12:23;16.00;32.00
16532;DHT22;66872;63.142;14.482;2024-02-23T05:14:49;16.00;32.00
16532;DHT22;66872;63.142;14.482;2024-02-23T05:17:15;16.00;32.00
16532;DHT22;66872;63.142;14.482;2024-02-23T05:19:40;16.00;32.00
16532;DHT22;66872;63.142;14.482;2024-02-23T05:22:06;16.00;32.00
16532;DHT22;66872;63.142;14.482;2024-02-23T05:24:31;16.00;32.00
16532;DHT22;66872;63.142;14.482;2024-02-23T05:26:57;16.00;32.00
16532;DHT22;66872;63.142;14.482;2024-02-23T05:29:28;16.00;32.00
16532;DHT22;66872;63.142;14.482;2024-02-23T05:31:54;16.00;32.00
16532;DHT22;66872;63.142;14.482;2024-02-23T05:34:20;16.00;32.00
16532;DHT22;66872;63.142;14.482;2024-02-23T05:36:46;16.00;32.00
16532;DHT22;66872;63.142;14.482;2024-02-23T05:39:13;16.00;32.00
16532;DHT22;66872;63.142;14.482;2024-02-23T05:41:41;16.00;32.00
16532;DHT22;66872;63.142;14.482;2024-02-23T05:44:07;16.00;32.10
16532;DHT22;66872;63.142;14.482;2024-02-23T05:46:34;16.00;32.10
16532;DHT22;66872;63.142;14.482;2024-02-23T05:49:00;16.00;32.10
16532;DHT22;66872;63.142;14.482;2024-02-23T05:51:27;16.00;32.10
16532;DHT22;66872;63.142;14.482;2024-02-23T05:53:54;16.00;32.00
16532;DHT22;66872;63.142;14.482;2024-02-23T05:56:20;16.00;32.10
16532;DHT22;66872;63.142;14.482;2024-02-23T05:58:46;16.00;32.10
16532;DHT22;66872;63.142;14.482;2024-02-23T06:01:12;16.00;32.00
16532;DHT22;66872;63.142;14.482;2024-02-23T06:03:37;16.00;32.00
16532;DHT22;66872;63.142;14.482;2024-02-23T06:06:07;16.00;32.20
16532;DHT22;66872;63.142;14.482;2024-02-23T06:08:34;16.00;32.00
16532;DHT22;66872;63.142;14.482;2024-02-23T06:11:00;16.00;32.00
16532;DHT22;66872;63.142;14.482;2024-02-23T06:13:26;16.00;32.00
16532;DHT22;66872;63.142;14.482;2024-02-23T06:15:52;16.00;32.00
16532;DHT22;66872;63.142;14.482;2024-02-23T06:18:17;16.00;32.00
16532;DHT22;66872;63.142;14.482;2024-02-23T06:20:43;16.00;32.00
16532;DHT22;66872;63.142;14.482;2024-02-23T06:23:09;16.00;32.00
16532;DHT22;66872;63.142;14.482;2024-02-23T06:25:34;16.00;32.00
16532;DHT22;66872;63.142;14.482;2024-02-23T06:28:00;16.00;32.00
16532;DHT22;66872;63.142;14.482;2024-02-23T06:30:26;16.00;32.00
16532;DHT22;66872;63.142;14.482;2024-02-23T06:32:52;16.00;32.00
16532;DHT22;66872;63.142;14.482;2024-02-23T06:35:17;16.00;32.70
16532;DHT22;66872;63.142;14.482;2024-02-23T06:37:43;16.00;32.00
16532;DHT22;66872;63.142;14.482;2024-02-23T06:40:09;16.00;32.10
16532;DHT22;66872;63.142;14.482;2024-02-23T06:42:35;16.00;32.10
16532;DHT22;66872;63.142;14.482;2024-02-23T06:45:01;16.00;32.00
16532;DHT22;66872;63.142;14.482;2024-02-23T06:47:27;16.00;32.00
16532;DHT22;66872;63.142;14.482;2024-02-23T06:49:52;16.00;32.00
16532;DHT22;66872;63.142;14.482;2024-02-23T06:52:18;16.00;32.00
16532;DHT22;66872;63.142;14.482;2024-02-23T06:54:44;15.90;32.00
16532;DHT22;66872;63.142;14.482;2024-02-23T06:57:10;16.00;32.00
16532;DHT22;66872;63.142;14.482;2024-02-23T06:59:36;16.00;32.00
16532;DHT22;66872;63.142;14.482;2024-02-23T07:02:02;15.90;31.90
16532;DHT22;66872;63.142;14.482;2024-02-23T07:04:29;16.00;32.00
16532;DHT22;66872;63.142;14.482;2024-02-23T07:06:55;16.00;32.00
16532;DHT22;66872;63.142;14.482;2024-02-23T07:09:21;15.90;32.00
16532;DHT22;66872;63.142;14.482;2024-02-23T07:11:46;16.00;32.00
16532;DHT22;66872;63.142;14.482;2024-02-23T07:14:12;15.90;31.90
16532;DHT22;66872;63.142;14.482;2024-02-23T07:16:40;15.90;31.90
16532;DHT22;66872;63.142;14.482;2024-02-23T07:19:06;15.90;32.00
16532;DHT22;66872;63.142;14.482;2024-02-23T07:21:32;15.90;32.00
16532;DHT22;66872;63.142;14.482;2024-02-23T07:23:59;15.90;32.00
16532;DHT22;66872;63.142;14.482;2024-02-23T07:26:25;15.90;32.00
16532;DHT22;66872;63.142;14.482;2024-02-23T07:28:50;15.90;32.00
16532;DHT22;66872;63.142;14.482;2024-02-23T07:31:16;15.90;32.00
16532;DHT22;66872;63.142;14.482;2024-02-23T07:33:43;16.00;32.00
16532;DHT22;66872;63.142;14.482;2024-02-23T07:36:17;15.90;32.00
16532;DHT22;66872;63.142;14.482;2024-02-23T07:38:42;15.90;32.00
16532;DHT22;66872;63.142;14.482;2024-02-23T07:41:11;15.90;31.90
16532;DHT22;66872;63.142;14.482;2024-02-23T07:43:39;15.90;31.90
16532;DHT22;66872;63.142;14.482;2024-02-23T07:46:04;15.90;32.00
16532;DHT22;66872;63.142;14.482;2024-02-23T07:48:34;15.90;31.90
16532;DHT22;66872;63.142;14.482;2024-02-23T07:50:59;15.90;32.00
16532;DHT22;66872;63.142;14.482;2024-02-23T07:53:25;15.90;32.00
16532;DHT22;66872;63.142;14.482;2024-02-23T07:55:51;15.90;31.90
16532;DHT22;66872;63.142;14.482;2024-02-23T07:58:16;15.90;32.00
16532;DHT22;66872;63.142;14.482;2024-02-23T08:00:42;15.90;31.90
16532;DHT22;66872;63.142;14.482;2024-02-23T08:03:08;15.90;32.00
16532;DHT22;66872;63.142;14.482;2024-02-23T08:05:33;15.90;32.00
16532;DHT22;66872;63.142;14.482;2024-02-23T08:07:59;15.90;32.00
16532;DHT22;66872;63.142;14.482;2024-02-23T08:10:25;15.90;31.90
16532;DHT22;66872;63.142;14.482;2024-02-23T08:12:51;15.90;32.00
16532;DHT22;66872;63.142;14.482;2024-02-23T08:15:16;15.90;32.00
16532;DHT22;66872;63.142;14.482;2024-02-23T08:17:42;15.90;32.00
16532;DHT22;66872;63.142;14.482;2024-02-23T08:20:08;15.90;32.00
16532;DHT22;66872;63.142;14.482;2024-02-23T08:22:34;15.90;32.00
16532;DHT22;66872;63.142;14.482;2024-02-23T08:25:00;15.90;32.00
16532;DHT22;66872;63.142;14.482;2024-02-23T08:27:25;15.90;32.00
16532;DHT22;66872;63.142;14.482;2024-02-23T08:29:51;15.90;32.00
16532;DHT22;66872;63.142;14.482;2024-02-23T08:32:17;15.90;32.00
16532;DHT22;66872;63.142;14.482;2024-02-23T08:34:44;15.90;32.00
16532;DHT22;66872;63.142;14.482;2024-02-23T08:37:09;15.90;32.00
16532;DHT22;66872;63.142;14.482;2024-02-23T08:39:35;15.90;32.00
16532;DHT22;66872;63.142;14.482;2024-02-23T08:42:02;15.90;32.00
16532;DHT22;66872;63.142;14.482;2024-02-23T08:44:28;15.90;32.00
16532;DHT22;66872;63.142;14.482;2024-02-23T08:46:54;15.80;31.90
16532;DHT22;66872;63.142;14.482;2024-02-23T08:49:20;15.80;31.90
16532;DHT22;66872;63.142;14.482;2024-02-23T08:51:45;15.80;31.90
16532;DHT22;66872;63.142;14.482;2024-02-23T08:54:11;15.90;32.00
16532;DHT22;66872;63.142;14.482;2024-02-23T08:56:38;15.90;32.00
16532;DHT22;66872;63.142;14.482;2024-02-23T08:59:08;15.90;32.00
16532;DHT22;66872;63.142;14.482;2024-02-23T09:01:35;15.90;32.00
16532;DHT22;66872;63.142;14.482;2024-02-23T09:04:01;15.90;32.00
16532;DHT22;66872;63.142;14.482;2024-02-23T09:06:26;15.80;31.90
16532;DHT22;66872;63.142;14.482;2024-02-23T09:08:52;15.80;31.90
16532;DHT22;66872;63.142;14.482;2024-02-23T09:11:18;15.80;31.80
16532;DHT22;66872;63.142;14.482;2024-02-23T09:13:43;15.80;31.80
16532;DHT22;66872;63.142;14.482;2024-02-23T09:16:09;15.80;31.90
16532;DHT22;66872;63.142;14.482;2024-02-23T09:18:35;15.80;31.90
16532;DHT22;66872;63.142;14.482;2024-02-23T09:21:01;15.80;31.90
16532;DHT22;66872;63.142;14.482;2024-02-23T09:23:27;15.80;31.90
16532;DHT22;66872;63.142;14.482;2024-02-23T09:25:53;15.80;31.90
16532;DHT22;66872;63.142;14.482;2024-02-23T09:28:18;15.80;31.80
16532;DHT22;66872;63.142;14.482;2024-02-23T09:30:44;15.80;31.70
16532;DHT22;66872;63.142;14.482;2024-02-23T09:33:10;15.80;31.70
16532;DHT22;66872;63.142;14.482;2024-02-23T09:35:35;15.80;31.70
16532;DHT22;66872;63.142;14.482;2024-02-23T09:38:01;15.80;31.80
16532;DHT22;66872;63.142;14.482;2024-02-23T09:40:27;15.80;31.70
16532;DHT22;66872;63.142;14.482;2024-02-23T09:42:57;15.80;31.70
16532;DHT22;66872;63.142;14.482;2024-02-23T09:45:27;15.80;31.70
16532;DHT22;66872;63.142;14.482;2024-02-23T09:47:57;15.80;31.70
16532;DHT22;66872;63.142;14.482;2024-02-23T09:50:24;15.80;31.70
16532;DHT22;66872;63.142;14.482;2024-02-23T09:52:50;15.80;31.70
16532;DHT22;66872;63.142;14.482;2024-02-23T09:55:20;15.80;31.70
16532;DHT22;66872;63.142;14.482;2024-02-23T09:57:48;15.80;31.70
16532;DHT22;66872;63.142;14.482;2024-02-23T10:00:16;15.80;31.70
16532;DHT22;66872;63.142;14.482;2024-02-23T10:02:43;15.80;31.70
16532;DHT22;66872;63.142;14.482;2024-02-23T10:05:10;15.80;31.70
16532;DHT22;66872;63.142;14.482;2024-02-23T10:07:37;15.80;31.70
16532;DHT22;66872;63.142;14.482;2024-02-23T10:10:07;15.80;31.70
16532;DHT22;66872;63.142;14.482;2024-02-23T10:12:34;15.80;31.70
16532;DHT22;66872;63.142;14.482;2024-02-23T10:15:00;15.80;31.70
16532;DHT22;66872;63.142;14.482;2024-02-23T10:17:32;15.80;31.60
16532;DHT22;66872;63.142;14.482;2024-02-23T10:19:59;15.80;31.60
16532;DHT22;66872;63.142;14.482;2024-02-23T10:22:30;15.80;31.60
16532;DHT22;66872;63.142;14.482;2024-02-23T10:24:56;15.80;31.60
16532;DHT22;66872;63.142;14.482;2024-02-23T10:27:23;15.80;31.60
16532;DHT22;66872;63.142;14.482;2024-02-23T10:29:51;15.80;31.50
16532;DHT22;66872;63.142;14.482;2024-02-23T10:32:18;15.80;31.60
16532;DHT22;66872;63.142;14.482;2024-02-23T10:34:48;15.80;31.60
16532;DHT22;66872;63.142;14.482;2024-02-23T10:37:15;15.80;31.60
16532;DHT22;66872;63.142;14.482;2024-02-23T10:39:42;15.80;31.60
16532;DHT22;66872;63.142;14.482;2024-02-23T10:42:09;15.80;31.60
16532;DHT22;66872;63.142;14.482;2024-02-23T10:44:36;15.80;31.60
16532;DHT22;66872;63.142;14.482;2024-02-23T10:47:02;15.80;31.60
16532;DHT22;66872;63.142;14.482;2024-02-23T10:49:29;15.80;31.60
16532;DHT22;66872;63.142;14.482;2024-02-23T10:51:56;15.80;31.50
16532;DHT22;66872;63.142;14.482;2024-02-23T10:54:22;15.80;31.50
16532;DHT22;66872;63.142;14.482;2024-02-23T10:56:50;15.80;31.50
16532;DHT22;66872;63.142;14.482;2024-02-23T10:59:19;15.80;31.50
16532;DHT22;66872;63.142;14.482;2024-02-23T11:01:49;15.80;31.50
16532;DHT22;66872;63.142;14.482;2024-02-23T11:04:19;15.80;31.50
16532;DHT22;66872;63.142;14.482;2024-02-23T11:06:52;15.80;31.50
16532;DHT22;66872;63.142;14.482;2024-02-23T11:09:21;15.80;31.50
16532;DHT22;66872;63.142;14.482;2024-02-23T11:11:55;15.80;31.50
16532;DHT22;66872;63.142;14.482;2024-02-23T11:14:35;15.80;31.60
16532;DHT22;66872;63.142;14.482;2024-02-23T11:17:01;15.70;32.10
16532;DHT22;66872;63.142;14.482;2024-02-23T11:19:38;15.80;31.60
16532;DHT22;66872;63.142;14.482;2024-02-23T11:22:04;15.80;31.50
16532;DHT22;66872;63.142;14.482;2024-02-23T11:24:31;15.80;31.60
16532;DHT22;66872;63.142;14.482;2024-02-23T11:27:01;15.80;31.50
16532;DHT22;66872;63.142;14.482;2024-02-23T11:29:34;15.80;31.50
16532;DHT22;66872;63.142;14.482;2024-02-23T11:32:01;15.80;31.50
16532;DHT22;66872;63.142;14.482;2024-02-23T11:34:30;15.80;31.50
16532;DHT22;66872;63.142;14.482;2024-02-23T11:36:56;15.80;31.50
16532;DHT22;66872;63.142;14.482;2024-02-23T11:39:23;15.80;31.50
16532;DHT22;66872;63.142;14.482;2024-02-23T11:41:49;15.80;31.50
16532;DHT22;66872;63.142;14.482;2024-02-23T11:44:16;15.80;31.50
16532;DHT22;66872;63.142;14.482;2024-02-23T11:46:46;15.80;31.50
16532;DHT22;66872;63.142;14.482;2024-02-23T11:49:13;15.80;31.50
16532;DHT22;66872;63.142;14.482;2024-02-23T11:51:39;15.80;31.60
16532;DHT22;66872;63.142;14.482;2024-02-23T11:54:06;15.80;31.50
16532;DHT22;66872;63.142;14.482;2024-02-23T11:56:31;15.80;31.60
16532;DHT22;66872;63.142;14.482;2024-02-23T11:58:57;15.80;31.60
16532;DHT22;66872;63.142;14.482;2024-02-23T12:01:23;15.70;31.60
16532;DHT22;66872;63.142;14.482;2024-02-23T12:03:49;15.80;31.70
16532;DHT22;66872;63.142;14.482;2024-02-23T12:06:15;15.80;31.70
16532;DHT22;66872;63.142;14.482;2024-02-23T12:08:44;15.70;31.60
16532;DHT22;66872;63.142;14.482;2024-02-23T12:11:11;15.80;31.70
16532;DHT22;66872;63.142;14.482;2024-02-23T12:13:39;15.70;31.60
16532;DHT22;66872;63.142;14.482;2024-02-23T12:16:08;15.70;31.70
16532;DHT22;66872;63.142;14.482;2024-02-23T12:18:35;15.70;31.70
16532;DHT22;66872;63.142;14.482;2024-02-23T12:21:02;15.70;31.70
16532;DHT22;66872;63.142;14.482;2024-02-23T12:23:42;15.70;31.70
16532;DHT22;66872;63.142;14.482;2024-02-23T12:26:09;15.70;31.70
16532;DHT22;66872;63.142;14.482;2024-02-23T12:28:35;15.70;31.70
16532;DHT22;66872;63.142;14.482;2024-02-23T12:31:02;15.80;31.80
16532;DHT22;66872;63.142;14.482;2024-02-23T12:33:29;15.70;31.80
16532;DHT22;66872;63.142;14.482;2024-02-23T12:35:55;15.70;31.80
16532;DHT22;66872;63.142;14.482;2024-02-23T12:38:24;15.70;31.80
16532;DHT22;66872;63.142;14.482;2024-02-23T12:40:50;15.70;31.80
16532;DHT22;66872;63.142;14.482;2024-02-23T12:43:17;15.70;31.80
16532;DHT22;66872;63.142;14.482;2024-02-23T12:45:42;15.70;31.80
16532;DHT22;66872;63.142;14.482;2024-02-23T12:48:10;15.80;31.90
16532;DHT22;66872;63.142;14.482;2024-02-23T12:50:36;15.80;32.00
16532;DHT22;66872;63.142;14.482;2024-02-23T12:53:02;15.70;31.90
16532;DHT22;66872;63.142;14.482;2024-02-23T12:55:29;15.70;31.80
16532;DHT22;66872;63.142;14.482;2024-02-23T12:57:54;15.80;32.00
16532;DHT22;66872;63.142;14.482;2024-02-23T13:00:20;15.80;31.90
16532;DHT22;66872;63.142;14.482;2024-02-23T13:02:46;15.80;32.00
16532;DHT22;66872;63.142;14.482;2024-02-23T13:05:12;15.80;32.00
16532;DHT22;66872;63.142;14.482;2024-02-23T13:07:38;15.80;31.90
16532;DHT22;66872;63.142;14.482;2024-02-23T13:10:06;15.80;32.00
16532;DHT22;66872;63.142;14.482;2024-02-23T13:12:32;15.80;32.10
16532;DHT22;66872;63.142;14.482;2024-02-23T13:14:58;15.80;32.10
16532;DHT22;66872;63.142;14.482;2024-02-23T13:17:24;15.80;32.00
16532;DHT22;66872;63.142;14.482;2024-02-23T13:19:49;15.80;32.10
16532;DHT22;66872;63.142;14.482;2024-02-23T13:22:15;15.80;32.10
16532;DHT22;66872;63.142;14.482;2024-02-23T13:24:41;15.80;32.10
16532;DHT22;66872;63.142;14.482;2024-02-23T13:27:06;15.80;32.10
16532;DHT22;66872;63.142;14.482;2024-02-23T13:29:32;15.80;32.10
16532;DHT22;66872;63.142;14.482;2024-02-23T13:31:58;15.80;32.10
16532;DHT22;66872;63.142;14.482;2024-02-23T13:34:23;15.80;32.10
16532;DHT22;66872;63.142;14.482;2024-02-23T13:36:49;15.80;32.10
16532;DHT22;66872;63.142;14.482;2024-02-23T13:39:15;15.80;32.20
16532;DHT22;66872;63.142;14.482;2024-02-23T13:41:41;15.80;32.10
16532;DHT22;66872;63.142;14.482;2024-02-23T13:44:07;15.80;32.10
16532;DHT22;66872;63.142;14.482;2024-02-23T13:46:37;15.80;32.10
16532;DHT22;66872;63.142;14.482;2024-02-23T13:49:05;15.80;32.20
16532;DHT22;66872;63.142;14.482;2024-02-23T13:51:32;15.80;32.20
16532;DHT22;66872;63.142;14.482;2024-02-23T13:53:58;15.80;32.20
16532;DHT22;66872;63.142;14.482;2024-02-23T13:56:24;15.80;32.20
16532;DHT22;66872;63.142;14.482;2024-02-23T13:58:50;15.80;32.20
16532;DHT22;66872;63.142;14.482;2024-02-23T14:01:16;15.80;32.20
16532;DHT22;66872;63.142;14.482;2024-02-23T14:03:41;15.80;32.20
16532;DHT22;66872;63.142;14.482;2024-02-23T14:06:08;15.80;32.20
16532;DHT22;66872;63.142;14.482;2024-02-23T14:08:34;15.80;32.20
16532;DHT22;66872;63.142;14.482;2024-02-23T14:11:00;15.80;32.20
16532;DHT22;66872;63.142;14.482;2024-02-23T14:13:26;15.80;32.20
16532;DHT22;66872;63.142;14.482;2024-02-23T14:15:52;15.80;32.20
16532;DHT22;66872;63.142;14.482;2024-02-23T14:18:19;15.80;32.20
16532;DHT22;66872;63.142;14.482;2024-02-23T14:20:45;15.80;32.30
16532;DHT22;66872;63.142;14.482;2024-02-23T14:23:10;15.80;32.30
16532;DHT22;66872;63.142;14.482;2024-02-23T14:25:36;15.80;32.30
16532;DHT22;66872;63.142;14.482;2024-02-23T14:28:02;15.80;32.30
16532;DHT22;66872;63.142;14.482;2024-02-23T14:30:28;15.80;32.20
16532;DHT22;66872;63.142;14.482;2024-02-23T14:32:54;15.80;32.30
16532;DHT22;66872;63.142;14.482;2024-02-23T14:35:19;15.80;32.30
16532;DHT22;66872;63.142;14.482;2024-02-23T14:37:46;15.80;32.20
16532;DHT22;66872;63.142;14.482;2024-02-23T14:40:11;15.80;32.20
16532;DHT22;66872;63.142;14.482;2024-02-23T14:42:39;15.80;32.20
16532;DHT22;66872;63.142;14.482;2024-02-23T14:45:06;15.80;32.20
16532;DHT22;66872;63.142;14.482;2024-02-23T14:47:33;15.80;32.20
16532;DHT22;66872;63.142;14.482;2024-02-23T14:49:59;15.80;32.20
16532;DHT22;66872;63.142;14.482;2024-02-23T14:52:25;15.80;32.20
16532;DHT22;66872;63.142;14.482;2024-02-23T14:54:51;15.80;32.20
16532;DHT22;66872;63.142;14.482;2024-02-23T14:57:16;15.80;32.30
16532;DHT22;66872;63.142;14.482;2024-02-23T14:59:42;15.80;32.30
16532;DHT22;66872;63.142;14.482;2024-02-23T15:02:19;15.80;32.30
16532;DHT22;66872;63.142;14.482;2024-02-23T15:04:45;15.80;32.30
16532;DHT22;66872;63.142;14.482;2024-02-23T15:07:11;15.80;32.30
16532;DHT22;66872;63.142;14.482;2024-02-23T15:09:37;15.80;32.30